新潟空港の過去48時間の天気

新潟空港 (Niigata)

現在時刻: 1/18 19:28 JST (1/18 10:28 UTC) 以下の時間は現地時間です。

過去48時間のMETAR気象情報
時間 風向 風速(m/s) 視程 気温(℃) 湿度(%) 気圧(hPa) 天気現象
18 19:00 南東 2 10km以上 5 65 1014
18 18:00 北北東 3 10km以上 5 65 1014
18 17:00 北東 3 10km以上 5 65 1014
18 16:00 北東 3 10km以上 5 61 1013
18 15:00 3 10km以上 5 61 1013
18 14:00 3 10km以上 5 61 1013
18 13:00 3 10km以上 5 56 1013
18 12:00 不定 1 10km以上 5 61 1014
18 11:00 南東 2 10km以上 5 65 1015
18 10:09 南東 3 10km以上 6 57 1015
18 10:00 東北東 5 10km以上 5 61 1015
18 09:40 北東 5 10km以上 5 56 1016
18 09:00 東南東 4 10km以上 4 60 1016
18 08:00 南東 4 10km以上 5 61 1016
18 07:08 北東 5 10km以上 4 70 1016
18 06:10 東南東 2 10km以上 2 69 1016
17 21:00 南南東 2 10km以上 3 81 1019
17 20:00 3 10km以上 4 75 1019
17 19:00 北北東 3 10km以上 5 65 1020
17 18:00 北北東 2 10km以上 5 65 1020
17 17:00 3 10km以上 6 61 1020
17 16:00 4 10km以上 6 57 1020
17 15:00 4 10km以上 7 57 1020
17 14:00 4 10km以上 7 57 1019
17 13:00 北北西 3 10km以上 7 61 1020
17 12:00 不定 1 10km以上 6 76 1021
17 11:00 3 10km以上 5 81 1022 弱いしゅう雨
17 10:00 3 10km以上 3 87 1023 弱いしゅう雨
17 09:00 南南東 4 8000m 2 93 1023 弱いしゅう雨
17 08:00 南東 2 10km以上 2 87 1022 弱いしゅう雨
17 07:00 3 10km以上 2 87 1022
17 06:10 3 10km以上 2 87 1022
16 21:00 4 10km以上 4 87 1022
16 20:00 4 10km以上 4 87 1022 弱いしゅう雨
RJSN 181000Z 14004KT 110V180 9999 FEW020 BKN030 BKN040 05/M01 Q1014
RJSN 180900Z 03005KT 9999 FEW030 BKN040 05/M01 Q1014
RJSN 180800Z 04006KT 9999 FEW030 BKN040 05/M01 Q1014
RJSN 180700Z 04006KT 9999 FEW030 SCT040 BKN/// 05/M02 Q1013
RJSN 180600Z 01006KT 340V040 9999 FEW030 BKN/// 05/M02 Q1013
RJSN 180500Z 36006KT 9999 FEW030 BKN/// 05/M02 Q1013
RJSN 180400Z 01006KT 340V050 9999 FEW030 SCT040 BKN/// 05/M03 Q1013
RJSN 180300Z VRB02KT 9999 FEW030 SCT040 BKN/// 05/M02 Q1014
RJSN 180200Z 14004KT 090V170 9999 FEW030 SCT050 BKN/// 05/M01 Q1015
RJSN 180109Z 13006KT 090V160 9999 FEW030 BKN050 BKN/// 06/M02 Q1015 RMK 1CU030 5CU050 A2999
RJSN 180100Z 07010KT 040V110 9999 FEW030 BKN050 05/M02 Q1015
RJSN 180040Z 05010KT 9999 FEW030 SCT040 BKN050 05/M03 Q1016 RMK 1CU030 3CU040 6CU050 A3000
RJSN 180000Z 11008KT 9999 FEW030 SCT040 BKN050 04/M03 Q1016
RJSN 172300Z 13007KT 060V150 9999 FEW020 SCT030 BKN040 05/M02 Q1016
RJSN 172208Z 04010KT 9999 FEW020 SCT040 BKN/// 04/M01 Q1016 RMK 1CU020 4CU040 A3001
RJSN 172110Z 12004KT 090V160 9999 FEW030 SCT050 BKN/// 02/M03 Q1016 RMK 1CU030 3CU050 A3002
RJSN 171200Z 15004KT 9999 FEW020 SCT030 BKN050 03/00 Q1019
RJSN 171100Z 09005KT 9999 FEW020 SCT030 BKN040 04/M00 Q1019
RJSN 171000Z 03005KT 9999 FEW020 SCT030 BKN050 05/M01 Q1020
RJSN 170900Z 02004KT 9999 FEW020 SCT030 BKN050 05/M01 Q1020
RJSN 170800Z 01005KT 9999 FEW020 SCT030 BKN040 06/M01 Q1020
RJSN 170700Z 01007KT 330V030 9999 FEW020 SCT040 BKN/// 06/M02 Q1020
RJSN 170600Z 35008KT 9999 FEW020 BKN040 07/M01 Q1020
RJSN 170500Z 36008KT 9999 FEW020 SCT030 BKN040 07/M01 Q1019
RJSN 170400Z 34005KT 280V010 9999 FEW020 SCT030 BKN040 07/00 Q1020
RJSN 170300Z VRB01KT 9999 FEW015 SCT030 BKN040 06/02 Q1021
RJSN 170200Z 18005KT 9999 -SHRA FEW010 SCT020 BKN030 05/02 Q1022
RJSN 170100Z 17006KT 9999 -SHRA FEW010 SCT020 BKN030 03/01 Q1023
RJSN 170000Z 16008KT 8000 -SHRA FEW005 SCT020 BKN030 02/01 Q1023
RJSN 162300Z 13003KT 9999 -SHRA FEW005 SCT020 BKN030 02/00 Q1022
RJSN 162200Z 17005KT 9999 FEW020 SCT030 BKN040 02/00 Q1022
RJSN 162110Z 17006KT 9999 FEW020 SCT030 BKN040 02/00 Q1022 RMK 1CU020 3CU030 6CU040 A3019
RJSN 161200Z 19008KT 9999 FEW020 SCT030 BKN040 04/02 Q1022
RJSN 161100Z 18008KT 9999 -SHRA FEW015 SCT020 BKN040 04/02 Q1022